sensor_id;sensor_type;location;lat;lon;timestamp;P1;durP1;ratioP1;P2;durP2;ratioP2
52354;SDS011;38286;51.156;17.038;2023-09-30T00:02:12;18.15;;;10.68;;
52354;SDS011;38286;51.156;17.038;2023-09-30T00:04:39;17.58;;;9.90;;
52354;SDS011;38286;51.156;17.038;2023-09-30T00:07:05;19.00;;;11.80;;
52354;SDS011;38286;51.156;17.038;2023-09-30T00:09:31;19.73;;;11.13;;
52354;SDS011;38286;51.156;17.038;2023-09-30T00:11:57;20.08;;;11.13;;
52354;SDS011;38286;51.156;17.038;2023-09-30T00:14:23;18.75;;;11.23;;
52354;SDS011;38286;51.156;17.038;2023-09-30T00:16:49;16.38;;;10.98;;
52354;SDS011;38286;51.156;17.038;2023-09-30T00:19:16;19.02;;;10.75;;
52354;SDS011;38286;51.156;17.038;2023-09-30T00:21:42;20.13;;;10.82;;
52354;SDS011;38286;51.156;17.038;2023-09-30T00:24:08;17.67;;;11.07;;
52354;SDS011;38286;51.156;17.038;2023-09-30T00:26:34;20.35;;;12.60;;
52354;SDS011;38286;51.156;17.038;2023-09-30T00:29:01;17.83;;;10.45;;
52354;SDS011;38286;51.156;17.038;2023-09-30T00:31:30;19.90;;;11.88;;
52354;SDS011;38286;51.156;17.038;2023-09-30T00:33:57;20.02;;;11.82;;
52354;SDS011;38286;51.156;17.038;2023-09-30T00:36:23;20.08;;;11.32;;
52354;SDS011;38286;51.156;17.038;2023-09-30T00:38:49;18.15;;;10.75;;
52354;SDS011;38286;51.156;17.038;2023-09-30T00:41:15;17.20;;;10.27;;
52354;SDS011;38286;51.156;17.038;2023-09-30T00:43:41;21.75;;;11.27;;
52354;SDS011;38286;51.156;17.038;2023-09-30T00:48:51;17.98;;;11.02;;
52354;SDS011;38286;51.156;17.038;2023-09-30T00:51:17;18.10;;;10.35;;
52354;SDS011;38286;51.156;17.038;2023-09-30T00:53:44;18.60;;;10.02;;
52354;SDS011;38286;51.156;17.038;2023-09-30T00:56:09;15.52;;;10.60;;
52354;SDS011;38286;51.156;17.038;2023-09-30T00:58:36;20.30;;;11.30;;
52354;SDS011;38286;51.156;17.038;2023-09-30T01:01:03;15.70;;;10.57;;
52354;SDS011;38286;51.156;17.038;2023-09-30T01:03:30;15.82;;;10.35;;
52354;SDS011;38286;51.156;17.038;2023-09-30T01:05:56;16.13;;;10.25;;
52354;SDS011;38286;51.156;17.038;2023-09-30T01:08:22;16.20;;;10.45;;
52354;SDS011;38286;51.156;17.038;2023-09-30T01:10:48;17.50;;;10.63;;
52354;SDS011;38286;51.156;17.038;2023-09-30T01:13:14;15.75;;;10.07;;
52354;SDS011;38286;51.156;17.038;2023-09-30T01:16:03;17.20;;;10.68;;
52354;SDS011;38286;51.156;17.038;2023-09-30T01:18:32;16.42;;;10.02;;
52354;SDS011;38286;51.156;17.038;2023-09-30T01:21:07;16.30;;;10.73;;
52354;SDS011;38286;51.156;17.038;2023-09-30T01:23:35;15.50;;;9.85;;
52354;SDS011;38286;51.156;17.038;2023-09-30T01:26:02;15.55;;;9.38;;
52354;SDS011;38286;51.156;17.038;2023-09-30T01:28:29;18.30;;;8.57;;
52354;SDS011;38286;51.156;17.038;2023-09-30T01:30:56;13.38;;;8.80;;
52354;SDS011;38286;51.156;17.038;2023-09-30T01:33:23;12.90;;;7.82;;
52354;SDS011;38286;51.156;17.038;2023-09-30T01:35:49;12.85;;;7.63;;
52354;SDS011;38286;51.156;17.038;2023-09-30T01:38:15;16.50;;;8.15;;
52354;SDS011;38286;51.156;17.038;2023-09-30T01:40:41;13.25;;;8.07;;
52354;SDS011;38286;51.156;17.038;2023-09-30T01:43:08;13.65;;;7.00;;
52354;SDS011;38286;51.156;17.038;2023-09-30T01:45:33;12.40;;;7.25;;
52354;SDS011;38286;51.156;17.038;2023-09-30T01:48:01;10.43;;;6.88;;
52354;SDS011;38286;51.156;17.038;2023-09-30T01:50:28;10.88;;;6.60;;
52354;SDS011;38286;51.156;17.038;2023-09-30T01:52:54;12.23;;;7.22;;
52354;SDS011;38286;51.156;17.038;2023-09-30T01:55:20;14.57;;;6.80;;
52354;SDS011;38286;51.156;17.038;2023-09-30T01:57:46;9.02;;;6.20;;
52354;SDS011;38286;51.156;17.038;2023-09-30T02:00:12;10.90;;;6.55;;
52354;SDS011;38286;51.156;17.038;2023-09-30T02:02:38;10.88;;;6.53;;
52354;SDS011;38286;51.156;17.038;2023-09-30T02:05:04;8.57;;;6.28;;
52354;SDS011;38286;51.156;17.038;2023-09-30T02:07:34;10.35;;;6.15;;
52354;SDS011;38286;51.156;17.038;2023-09-30T02:10:00;10.13;;;5.88;;
52354;SDS011;38286;51.156;17.038;2023-09-30T02:12:27;10.98;;;6.25;;
52354;SDS011;38286;51.156;17.038;2023-09-30T02:14:55;10.65;;;6.07;;
52354;SDS011;38286;51.156;17.038;2023-09-30T02:17:23;9.80;;;6.32;;
52354;SDS011;38286;51.156;17.038;2023-09-30T02:19:49;9.45;;;5.78;;
52354;SDS011;38286;51.156;17.038;2023-09-30T02:22:15;7.60;;;5.63;;
52354;SDS011;38286;51.156;17.038;2023-09-30T02:24:41;10.15;;;5.05;;
52354;SDS011;38286;51.156;17.038;2023-09-30T02:27:08;8.45;;;6.03;;
52354;SDS011;38286;51.156;17.038;2023-09-30T02:29:34;8.85;;;5.55;;
52354;SDS011;38286;51.156;17.038;2023-09-30T02:32:00;9.05;;;5.65;;
52354;SDS011;38286;51.156;17.038;2023-09-30T02:34:26;11.07;;;5.68;;
52354;SDS011;38286;51.156;17.038;2023-09-30T02:36:53;7.55;;;5.32;;
52354;SDS011;38286;51.156;17.038;2023-09-30T02:39:20;11.07;;;5.57;;
52354;SDS011;38286;51.156;17.038;2023-09-30T02:41:46;11.48;;;5.78;;
52354;SDS011;38286;51.156;17.038;2023-09-30T02:44:15;9.60;;;5.20;;
52354;SDS011;38286;51.156;17.038;2023-09-30T02:46:41;6.80;;;4.97;;
52354;SDS011;38286;51.156;17.038;2023-09-30T02:49:07;8.68;;;5.57;;
52354;SDS011;38286;51.156;17.038;2023-09-30T02:51:33;7.00;;;4.75;;
52354;SDS011;38286;51.156;17.038;2023-09-30T02:54:00;7.72;;;4.78;;
52354;SDS011;38286;51.156;17.038;2023-09-30T02:56:26;8.68;;;5.30;;
52354;SDS011;38286;51.156;17.038;2023-09-30T02:58:56;8.40;;;5.20;;
52354;SDS011;38286;51.156;17.038;2023-09-30T03:01:22;8.75;;;5.10;;
52354;SDS011;38286;51.156;17.038;2023-09-30T03:03:48;7.93;;;5.28;;
52354;SDS011;38286;51.156;17.038;2023-09-30T03:06:14;8.98;;;4.88;;
52354;SDS011;38286;51.156;17.038;2023-09-30T03:08:40;7.38;;;5.03;;
52354;SDS011;38286;51.156;17.038;2023-09-30T03:11:06;11.95;;;5.43;;
52354;SDS011;38286;51.156;17.038;2023-09-30T03:13:33;6.75;;;4.63;;
52354;SDS011;38286;51.156;17.038;2023-09-30T03:15:59;8.32;;;4.95;;
52354;SDS011;38286;51.156;17.038;2023-09-30T03:18:26;9.40;;;4.72;;
52354;SDS011;38286;51.156;17.038;2023-09-30T03:20:57;9.00;;;5.15;;
52354;SDS011;38286;51.156;17.038;2023-09-30T03:23:26;7.93;;;5.30;;
52354;SDS011;38286;51.156;17.038;2023-09-30T03:25:57;8.88;;;5.40;;
52354;SDS011;38286;51.156;17.038;2023-09-30T03:28:23;9.65;;;5.63;;
52354;SDS011;38286;51.156;17.038;2023-09-30T03:30:50;10.35;;;5.10;;
52354;SDS011;38286;51.156;17.038;2023-09-30T03:33:16;7.80;;;4.80;;
52354;SDS011;38286;51.156;17.038;2023-09-30T03:35:42;8.32;;;5.47;;
52354;SDS011;38286;51.156;17.038;2023-09-30T03:38:10;10.30;;;5.30;;
52354;SDS011;38286;51.156;17.038;2023-09-30T03:40:36;8.50;;;4.93;;
52354;SDS011;38286;51.156;17.038;2023-09-30T03:43:03;10.13;;;5.70;;
52354;SDS011;38286;51.156;17.038;2023-09-30T03:45:31;8.32;;;5.50;;
52354;SDS011;38286;51.156;17.038;2023-09-30T03:48:00;10.38;;;5.55;;
52354;SDS011;38286;51.156;17.038;2023-09-30T03:50:27;9.75;;;5.50;;
52354;SDS011;38286;51.156;17.038;2023-09-30T03:53:02;9.45;;;4.97;;
52354;SDS011;38286;51.156;17.038;2023-09-30T03:55:28;6.97;;;4.90;;
52354;SDS011;38286;51.156;17.038;2023-09-30T03:57:55;11.00;;;5.43;;
52354;SDS011;38286;51.156;17.038;2023-09-30T04:00:21;8.88;;;5.38;;
52354;SDS011;38286;51.156;17.038;2023-09-30T04:02:51;9.60;;;4.97;;
52354;SDS011;38286;51.156;17.038;2023-09-30T04:05:23;10.68;;;4.88;;
52354;SDS011;38286;51.156;17.038;2023-09-30T04:08:01;10.80;;;5.35;;
52354;SDS011;38286;51.156;17.038;2023-09-30T04:10:28;12.85;;;5.38;;
52354;SDS011;38286;51.156;17.038;2023-09-30T04:12:57;10.23;;;6.00;;
52354;SDS011;38286;51.156;17.038;2023-09-30T04:15:24;11.23;;;5.18;;
52354;SDS011;38286;51.156;17.038;2023-09-30T04:17:50;15.20;;;5.35;;
52354;SDS011;38286;51.156;17.038;2023-09-30T04:20:17;8.88;;;5.40;;
52354;SDS011;38286;51.156;17.038;2023-09-30T04:22:48;9.35;;;5.25;;
52354;SDS011;38286;51.156;17.038;2023-09-30T04:25:15;9.73;;;5.72;;
52354;SDS011;38286;51.156;17.038;2023-09-30T04:27:42;13.15;;;6.05;;
52354;SDS011;38286;51.156;17.038;2023-09-30T04:30:08;10.65;;;5.70;;
52354;SDS011;38286;51.156;17.038;2023-09-30T04:32:36;8.82;;;5.40;;
52354;SDS011;38286;51.156;17.038;2023-09-30T04:35:04;10.82;;;6.38;;
52354;SDS011;38286;51.156;17.038;2023-09-30T04:37:31;12.20;;;5.15;;
52354;SDS011;38286;51.156;17.038;2023-09-30T04:39:57;9.98;;;5.40;;
52354;SDS011;38286;51.156;17.038;2023-09-30T04:42:24;11.10;;;6.40;;
52354;SDS011;38286;51.156;17.038;2023-09-30T04:44:52;8.73;;;5.90;;
52354;SDS011;38286;51.156;17.038;2023-09-30T04:47:19;12.02;;;6.07;;
52354;SDS011;38286;51.156;17.038;2023-09-30T04:49:45;11.45;;;5.75;;
52354;SDS011;38286;51.156;17.038;2023-09-30T04:52:11;10.23;;;6.20;;
52354;SDS011;38286;51.156;17.038;2023-09-30T04:54:37;9.15;;;5.43;;
52354;SDS011;38286;51.156;17.038;2023-09-30T04:57:03;9.68;;;5.28;;
52354;SDS011;38286;51.156;17.038;2023-09-30T04:59:30;11.68;;;5.78;;
52354;SDS011;38286;51.156;17.038;2023-09-30T05:01:56;10.48;;;5.00;;
52354;SDS011;38286;51.156;17.038;2023-09-30T05:04:22;9.70;;;5.15;;
52354;SDS011;38286;51.156;17.038;2023-09-30T05:06:49;9.85;;;5.68;;
52354;SDS011;38286;51.156;17.038;2023-09-30T05:09:15;11.35;;;5.60;;
52354;SDS011;38286;51.156;17.038;2023-09-30T05:11:41;8.77;;;5.25;;
52354;SDS011;38286;51.156;17.038;2023-09-30T05:14:07;10.40;;;5.22;;
52354;SDS011;38286;51.156;17.038;2023-09-30T05:16:33;9.30;;;5.25;;
52354;SDS011;38286;51.156;17.038;2023-09-30T05:18:59;10.60;;;5.70;;
52354;SDS011;38286;51.156;17.038;2023-09-30T05:21:25;10.52;;;5.15;;
52354;SDS011;38286;51.156;17.038;2023-09-30T05:23:52;9.93;;;5.38;;
52354;SDS011;38286;51.156;17.038;2023-09-30T05:26:18;12.50;;;5.05;;
52354;SDS011;38286;51.156;17.038;2023-09-30T05:28:44;11.93;;;5.70;;
52354;SDS011;38286;51.156;17.038;2023-09-30T05:31:10;9.57;;;5.30;;
52354;SDS011;38286;51.156;17.038;2023-09-30T05:33:36;9.05;;;5.47;;
52354;SDS011;38286;51.156;17.038;2023-09-30T05:36:03;9.18;;;5.30;;
52354;SDS011;38286;51.156;17.038;2023-09-30T05:38:29;9.90;;;4.90;;
52354;SDS011;38286;51.156;17.038;2023-09-30T05:40:56;10.68;;;5.15;;
52354;SDS011;38286;51.156;17.038;2023-09-30T05:43:25;9.02;;;4.97;;
52354;SDS011;38286;51.156;17.038;2023-09-30T05:45:52;10.07;;;4.82;;
52354;SDS011;38286;51.156;17.038;2023-09-30T05:48:20;10.98;;;5.15;;
52354;SDS011;38286;51.156;17.038;2023-09-30T05:50:47;7.47;;;4.80;;
52354;SDS011;38286;51.156;17.038;2023-09-30T05:53:13;8.50;;;4.45;;
52354;SDS011;38286;51.156;17.038;2023-09-30T05:55:39;8.52;;;4.70;;
52354;SDS011;38286;51.156;17.038;2023-09-30T05:58:09;10.10;;;4.75;;
52354;SDS011;38286;51.156;17.038;2023-09-30T06:00:35;9.23;;;4.85;;
52354;SDS011;38286;51.156;17.038;2023-09-30T06:03:01;11.40;;;5.78;;
52354;SDS011;38286;51.156;17.038;2023-09-30T06:05:30;9.60;;;4.90;;
52354;SDS011;38286;51.156;17.038;2023-09-30T06:07:57;9.40;;;5.13;;
52354;SDS011;38286;51.156;17.038;2023-09-30T06:10:24;9.50;;;5.03;;
52354;SDS011;38286;51.156;17.038;2023-09-30T06:12:52;12.05;;;4.40;;
52354;SDS011;38286;51.156;17.038;2023-09-30T06:15:21;5.68;;;3.30;;
52354;SDS011;38286;51.156;17.038;2023-09-30T06:17:51;6.38;;;2.92;;
52354;SDS011;38286;51.156;17.038;2023-09-30T06:20:18;5.47;;;2.75;;
52354;SDS011;38286;51.156;17.038;2023-09-30T06:22:45;3.03;;;1.77;;
52354;SDS011;38286;51.156;17.038;2023-09-30T06:25:14;7.10;;;2.25;;
52354;SDS011;38286;51.156;17.038;2023-09-30T06:27:44;7.68;;;2.35;;
52354;SDS011;38286;51.156;17.038;2023-09-30T06:30:11;5.55;;;2.30;;
52354;SDS011;38286;51.156;17.038;2023-09-30T06:32:39;3.20;;;1.77;;
52354;SDS011;38286;51.156;17.038;2023-09-30T06:35:06;3.92;;;1.88;;
52354;SDS011;38286;51.156;17.038;2023-09-30T06:37:36;9.40;;;2.28;;
52354;SDS011;38286;51.156;17.038;2023-09-30T06:40:04;2.65;;;1.70;;
52354;SDS011;38286;51.156;17.038;2023-09-30T06:42:34;5.18;;;1.35;;
52354;SDS011;38286;51.156;17.038;2023-09-30T06:45:04;3.20;;;1.35;;
52354;SDS011;38286;51.156;17.038;2023-09-30T06:47:40;3.90;;;1.60;;
52354;SDS011;38286;51.156;17.038;2023-09-30T06:50:10;3.85;;;1.40;;
52354;SDS011;38286;51.156;17.038;2023-09-30T06:52:39;4.25;;;1.30;;
52354;SDS011;38286;51.156;17.038;2023-09-30T06:55:06;5.18;;;1.70;;
52354;SDS011;38286;51.156;17.038;2023-09-30T06:57:33;3.45;;;1.48;;
52354;SDS011;38286;51.156;17.038;2023-09-30T07:00:00;5.20;;;1.80;;
52354;SDS011;38286;51.156;17.038;2023-09-30T07:02:26;2.42;;;1.50;;
52354;SDS011;38286;51.156;17.038;2023-09-30T07:04:52;5.05;;;2.13;;
52354;SDS011;38286;51.156;17.038;2023-09-30T07:07:18;7.70;;;3.72;;
52354;SDS011;38286;51.156;17.038;2023-09-30T07:09:44;5.63;;;3.30;;
52354;SDS011;38286;51.156;17.038;2023-09-30T07:12:10;7.25;;;3.40;;
52354;SDS011;38286;51.156;17.038;2023-09-30T07:14:37;7.45;;;4.43;;
52354;SDS011;38286;51.156;17.038;2023-09-30T07:17:03;9.55;;;4.22;;
52354;SDS011;38286;51.156;17.038;2023-09-30T07:19:30;6.28;;;3.80;;
52354;SDS011;38286;51.156;17.038;2023-09-30T07:21:56;10.45;;;4.28;;
52354;SDS011;38286;51.156;17.038;2023-09-30T07:24:22;7.95;;;4.63;;
52354;SDS011;38286;51.156;17.038;2023-09-30T07:26:48;8.88;;;4.50;;
52354;SDS011;38286;51.156;17.038;2023-09-30T07:29:14;9.00;;;4.40;;
52354;SDS011;38286;51.156;17.038;2023-09-30T07:31:40;8.70;;;4.55;;
52354;SDS011;38286;51.156;17.038;2023-09-30T07:34:06;8.40;;;4.00;;
52354;SDS011;38286;51.156;17.038;2023-09-30T07:36:32;6.78;;;3.80;;
52354;SDS011;38286;51.156;17.038;2023-09-30T07:38:58;9.80;;;4.05;;
52354;SDS011;38286;51.156;17.038;2023-09-30T07:41:26;7.40;;;3.03;;
52354;SDS011;38286;51.156;17.038;2023-09-30T07:43:52;6.18;;;2.65;;
52354;SDS011;38286;51.156;17.038;2023-09-30T07:46:19;6.45;;;2.83;;
52354;SDS011;38286;51.156;17.038;2023-09-30T07:48:44;8.48;;;2.50;;
52354;SDS011;38286;51.156;17.038;2023-09-30T07:51:11;3.75;;;1.88;;
52354;SDS011;38286;51.156;17.038;2023-09-30T07:53:38;8.02;;;1.90;;
52354;SDS011;38286;51.156;17.038;2023-09-30T07:56:08;4.05;;;1.73;;
52354;SDS011;38286;51.156;17.038;2023-09-30T07:58:33;4.28;;;1.90;;
52354;SDS011;38286;51.156;17.038;2023-09-30T08:01:00;5.13;;;2.30;;
52354;SDS011;38286;51.156;17.038;2023-09-30T08:03:28;6.63;;;1.67;;
52354;SDS011;38286;51.156;17.038;2023-09-30T08:05:54;5.97;;;1.88;;
52354;SDS011;38286;51.156;17.038;2023-09-30T08:08:20;7.05;;;2.05;;
52354;SDS011;38286;51.156;17.038;2023-09-30T08:10:46;6.00;;;2.50;;
52354;SDS011;38286;51.156;17.038;2023-09-30T08:13:12;6.25;;;2.05;;
52354;SDS011;38286;51.156;17.038;2023-09-30T08:15:38;4.65;;;1.90;;
52354;SDS011;38286;51.156;17.038;2023-09-30T08:18:04;6.47;;;1.98;;
52354;SDS011;38286;51.156;17.038;2023-09-30T08:20:31;8.52;;;2.50;;
52354;SDS011;38286;51.156;17.038;2023-09-30T08:22:57;5.60;;;1.90;;
52354;SDS011;38286;51.156;17.038;2023-09-30T08:25:24;9.20;;;2.50;;
52354;SDS011;38286;51.156;17.038;2023-09-30T08:27:50;6.50;;;2.30;;
52354;SDS011;38286;51.156;17.038;2023-09-30T08:30:17;5.63;;;2.50;;
52354;SDS011;38286;51.156;17.038;2023-09-30T08:32:43;8.68;;;2.45;;
52354;SDS011;38286;51.156;17.038;2023-09-30T08:35:09;8.52;;;2.63;;
52354;SDS011;38286;51.156;17.038;2023-09-30T08:37:36;6.13;;;2.00;;
52354;SDS011;38286;51.156;17.038;2023-09-30T08:40:02;6.95;;;2.33;;
52354;SDS011;38286;51.156;17.038;2023-09-30T08:42:30;8.73;;;2.50;;
52354;SDS011;38286;51.156;17.038;2023-09-30T08:44:58;7.72;;;2.45;;
52354;SDS011;38286;51.156;17.038;2023-09-30T08:47:26;6.60;;;2.78;;
52354;SDS011;38286;51.156;17.038;2023-09-30T08:49:56;8.40;;;2.42;;
52354;SDS011;38286;51.156;17.038;2023-09-30T08:52:33;4.60;;;2.17;;
52354;SDS011;38286;51.156;17.038;2023-09-30T08:55:00;8.07;;;2.67;;
52354;SDS011;38286;51.156;17.038;2023-09-30T08:57:26;8.52;;;2.90;;
52354;SDS011;38286;51.156;17.038;2023-09-30T08:59:53;6.40;;;2.60;;
52354;SDS011;38286;51.156;17.038;2023-09-30T09:02:19;7.70;;;2.50;;
52354;SDS011;38286;51.156;17.038;2023-09-30T09:04:45;8.68;;;2.03;;
52354;SDS011;38286;51.156;17.038;2023-09-30T09:07:12;7.57;;;2.28;;
52354;SDS011;38286;51.156;17.038;2023-09-30T09:09:38;8.18;;;2.28;;
52354;SDS011;38286;51.156;17.038;2023-09-30T09:12:04;8.13;;;2.20;;
52354;SDS011;38286;51.156;17.038;2023-09-30T09:14:37;10.10;;;3.85;;
52354;SDS011;38286;51.156;17.038;2023-09-30T09:17:06;12.40;;;2.38;;
52354;SDS011;38286;51.156;17.038;2023-09-30T09:19:33;9.27;;;1.88;;
52354;SDS011;38286;51.156;17.038;2023-09-30T09:22:01;8.02;;;1.90;;
52354;SDS011;38286;51.156;17.038;2023-09-30T09:24:35;5.38;;;1.77;;
52354;SDS011;38286;51.156;17.038;2023-09-30T09:27:04;6.33;;;1.50;;
52354;SDS011;38286;51.156;17.038;2023-09-30T09:29:34;7.22;;;1.65;;
52354;SDS011;38286;51.156;17.038;2023-09-30T09:32:11;3.45;;;1.73;;
52354;SDS011;38286;51.156;17.038;2023-09-30T09:34:41;6.47;;;1.60;;
52354;SDS011;38286;51.156;17.038;2023-09-30T09:37:18;11.30;;;1.80;;
52354;SDS011;38286;51.156;17.038;2023-09-30T09:39:52;4.75;;;1.50;;
52354;SDS011;38286;51.156;17.038;2023-09-30T09:42:27;5.00;;;1.52;;
52354;SDS011;38286;51.156;17.038;2023-09-30T09:44:57;4.80;;;1.42;;
52354;SDS011;38286;51.156;17.038;2023-09-30T09:47:25;4.75;;;1.60;;
52354;SDS011;38286;51.156;17.038;2023-09-30T09:49:51;6.03;;;1.70;;
52354;SDS011;38286;51.156;17.038;2023-09-30T09:52:20;4.68;;;1.63;;
52354;SDS011;38286;51.156;17.038;2023-09-30T09:54:47;7.82;;;1.40;;
52354;SDS011;38286;51.156;17.038;2023-09-30T09:57:14;5.95;;;1.60;;
52354;SDS011;38286;51.156;17.038;2023-09-30T09:59:42;5.25;;;1.70;;
52354;SDS011;38286;51.156;17.038;2023-09-30T10:02:10;6.90;;;1.88;;
52354;SDS011;38286;51.156;17.038;2023-09-30T10:04:43;7.50;;;1.50;;
52354;SDS011;38286;51.156;17.038;2023-09-30T10:07:26;6.05;;;1.55;;
52354;SDS011;38286;51.156;17.038;2023-09-30T10:09:54;4.63;;;1.48;;
52354;SDS011;38286;51.156;17.038;2023-09-30T10:12:23;5.45;;;2.08;;
52354;SDS011;38286;51.156;17.038;2023-09-30T10:14:49;5.00;;;1.58;;
52354;SDS011;38286;51.156;17.038;2023-09-30T10:17:15;4.47;;;1.40;;
52354;SDS011;38286;51.156;17.038;2023-09-30T10:22:30;4.70;;;1.40;;
52354;SDS011;38286;51.156;17.038;2023-09-30T10:24:57;5.18;;;1.42;;
52354;SDS011;38286;51.156;17.038;2023-09-30T10:30:09;5.38;;;1.15;;
52354;SDS011;38286;51.156;17.038;2023-09-30T10:37:51;5.82;;;1.55;;
52354;SDS011;38286;51.156;17.038;2023-09-30T10:40:53;10.13;;;1.60;;
52354;SDS011;38286;51.156;17.038;2023-09-30T10:43:31;3.33;;;1.40;;
52354;SDS011;38286;51.156;17.038;2023-09-30T10:46:29;5.35;;;1.55;;
52354;SDS011;38286;51.156;17.038;2023-09-30T10:48:53;6.40;;;1.40;;
52354;SDS011;38286;51.156;17.038;2023-09-30T10:51:19;6.13;;;1.50;;
52354;SDS011;38286;51.156;17.038;2023-09-30T10:53:52;8.43;;;1.92;;
52354;SDS011;38286;51.156;17.038;2023-09-30T10:56:22;4.72;;;1.60;;
52354;SDS011;38286;51.156;17.038;2023-09-30T10:58:52;5.45;;;1.70;;
52354;SDS011;38286;51.156;17.038;2023-09-30T11:01:22;5.47;;;1.85;;
52354;SDS011;38286;51.156;17.038;2023-09-30T11:03:49;5.65;;;1.73;;
52354;SDS011;38286;51.156;17.038;2023-09-30T11:06:21;4.50;;;1.40;;
52354;SDS011;38286;51.156;17.038;2023-09-30T11:08:57;6.05;;;1.83;;
52354;SDS011;38286;51.156;17.038;2023-09-30T11:11:38;3.60;;;1.50;;
52354;SDS011;38286;51.156;17.038;2023-09-30T11:14:18;5.28;;;1.85;;
52354;SDS011;38286;51.156;17.038;2023-09-30T11:16:52;5.38;;;1.73;;
52354;SDS011;38286;51.156;17.038;2023-09-30T11:19:19;9.25;;;2.20;;
52354;SDS011;38286;51.156;17.038;2023-09-30T11:21:49;8.07;;;1.90;;
52354;SDS011;38286;51.156;17.038;2023-09-30T11:24:17;6.97;;;1.80;;
52354;SDS011;38286;51.156;17.038;2023-09-30T11:26:44;4.82;;;1.70;;
52354;SDS011;38286;51.156;17.038;2023-09-30T11:29:15;6.20;;;1.70;;
52354;SDS011;38286;51.156;17.038;2023-09-30T11:31:47;6.63;;;2.00;;
52354;SDS011;38286;51.156;17.038;2023-09-30T11:34:13;7.93;;;2.00;;
52354;SDS011;38286;51.156;17.038;2023-09-30T11:36:51;5.80;;;2.00;;
52354;SDS011;38286;51.156;17.038;2023-09-30T11:39:24;6.20;;;1.92;;
52354;SDS011;38286;51.156;17.038;2023-09-30T11:41:51;5.43;;;2.03;;
52354;SDS011;38286;51.156;17.038;2023-09-30T11:44:17;7.50;;;1.98;;
52354;SDS011;38286;51.156;17.038;2023-09-30T11:46:51;12.35;;;2.78;;
52354;SDS011;38286;51.156;17.038;2023-09-30T11:49:34;7.85;;;2.80;;
52354;SDS011;38286;51.156;17.038;2023-09-30T11:52:08;7.13;;;2.17;;
52354;SDS011;38286;51.156;17.038;2023-09-30T11:54:42;8.35;;;2.40;;
52354;SDS011;38286;51.156;17.038;2023-09-30T11:57:10;7.88;;;2.20;;
52354;SDS011;38286;51.156;17.038;2023-09-30T11:59:42;6.85;;;1.83;;
52354;SDS011;38286;51.156;17.038;2023-09-30T12:02:14;5.95;;;2.53;;
52354;SDS011;38286;51.156;17.038;2023-09-30T12:04:41;15.50;;;1.80;;
52354;SDS011;38286;51.156;17.038;2023-09-30T12:07:08;5.25;;;1.70;;
52354;SDS011;38286;51.156;17.038;2023-09-30T12:09:34;7.32;;;1.90;;
52354;SDS011;38286;51.156;17.038;2023-09-30T12:12:03;5.13;;;1.88;;
52354;SDS011;38286;51.156;17.038;2023-09-30T12:14:29;8.70;;;2.20;;
52354;SDS011;38286;51.156;17.038;2023-09-30T12:16:57;7.85;;;1.88;;
52354;SDS011;38286;51.156;17.038;2023-09-30T12:19:22;5.97;;;1.85;;
52354;SDS011;38286;51.156;17.038;2023-09-30T12:21:50;7.95;;;2.33;;
52354;SDS011;38286;51.156;17.038;2023-09-30T12:24:16;6.72;;;1.80;;
52354;SDS011;38286;51.156;17.038;2023-09-30T12:26:45;8.02;;;1.80;;
52354;SDS011;38286;51.156;17.038;2023-09-30T12:29:19;8.20;;;1.83;;
52354;SDS011;38286;51.156;17.038;2023-09-30T12:31:48;7.05;;;2.20;;
52354;SDS011;38286;51.156;17.038;2023-09-30T12:34:15;9.63;;;1.92;;
52354;SDS011;38286;51.156;17.038;2023-09-30T12:36:41;6.57;;;1.85;;
52354;SDS011;38286;51.156;17.038;2023-09-30T12:39:11;6.85;;;1.58;;
52354;SDS011;38286;51.156;17.038;2023-09-30T12:41:37;7.13;;;1.90;;
52354;SDS011;38286;51.156;17.038;2023-09-30T12:44:04;3.88;;;1.60;;
52354;SDS011;38286;51.156;17.038;2023-09-30T12:46:31;6.70;;;1.65;;
52354;SDS011;38286;51.156;17.038;2023-09-30T12:49:03;5.55;;;1.80;;
52354;SDS011;38286;51.156;17.038;2023-09-30T12:51:29;5.82;;;1.50;;
52354;SDS011;38286;51.156;17.038;2023-09-30T12:53:56;11.85;;;1.90;;
52354;SDS011;38286;51.156;17.038;2023-09-30T12:56:23;5.07;;;1.60;;
52354;SDS011;38286;51.156;17.038;2023-09-30T12:58:49;4.32;;;1.63;;
52354;SDS011;38286;51.156;17.038;2023-09-30T13:01:16;4.72;;;1.70;;
52354;SDS011;38286;51.156;17.038;2023-09-30T13:03:44;8.45;;;1.80;;
52354;SDS011;38286;51.156;17.038;2023-09-30T13:06:11;4.90;;;1.73;;
52354;SDS011;38286;51.156;17.038;2023-09-30T13:08:37;4.43;;;1.58;;
52354;SDS011;38286;51.156;17.038;2023-09-30T13:11:04;5.00;;;1.48;;
52354;SDS011;38286;51.156;17.038;2023-09-30T13:13:31;6.05;;;1.70;;
52354;SDS011;38286;51.156;17.038;2023-09-30T13:15:59;6.38;;;1.70;;
52354;SDS011;38286;51.156;17.038;2023-09-30T13:18:25;4.55;;;1.80;;
52354;SDS011;38286;51.156;17.038;2023-09-30T13:20:52;5.85;;;1.70;;
52354;SDS011;38286;51.156;17.038;2023-09-30T13:23:18;5.45;;;1.42;;
52354;SDS011;38286;51.156;17.038;2023-09-30T13:25:44;5.50;;;1.50;;
52354;SDS011;38286;51.156;17.038;2023-09-30T13:28:10;5.60;;;1.60;;
52354;SDS011;38286;51.156;17.038;2023-09-30T13:30:37;8.23;;;1.70;;
52354;SDS011;38286;51.156;17.038;2023-09-30T13:33:03;7.72;;;1.70;;
52354;SDS011;38286;51.156;17.038;2023-09-30T13:35:29;5.38;;;1.63;;
52354;SDS011;38286;51.156;17.038;2023-09-30T13:37:55;4.43;;;1.60;;
52354;SDS011;38286;51.156;17.038;2023-09-30T13:40:21;6.40;;;1.70;;
52354;SDS011;38286;51.156;17.038;2023-09-30T13:42:47;5.65;;;1.83;;
52354;SDS011;38286;51.156;17.038;2023-09-30T13:45:13;6.18;;;1.50;;
52354;SDS011;38286;51.156;17.038;2023-09-30T13:47:39;5.45;;;1.70;;
52354;SDS011;38286;51.156;17.038;2023-09-30T13:50:05;8.13;;;1.75;;
52354;SDS011;38286;51.156;17.038;2023-09-30T13:52:34;6.82;;;1.88;;
52354;SDS011;38286;51.156;17.038;2023-09-30T13:55:01;5.35;;;1.55;;
52354;SDS011;38286;51.156;17.038;2023-09-30T13:57:27;6.68;;;2.13;;
52354;SDS011;38286;51.156;17.038;2023-09-30T13:59:53;5.70;;;2.17;;
52354;SDS011;38286;51.156;17.038;2023-09-30T14:02:19;7.88;;;1.70;;
52354;SDS011;38286;51.156;17.038;2023-09-30T14:04:45;4.90;;;1.73;;
52354;SDS011;38286;51.156;17.038;2023-09-30T14:07:11;6.63;;;1.52;;
52354;SDS011;38286;51.156;17.038;2023-09-30T14:09:37;6.13;;;1.70;;
52354;SDS011;38286;51.156;17.038;2023-09-30T14:12:03;8.90;;;1.85;;
52354;SDS011;38286;51.156;17.038;2023-09-30T14:14:33;7.10;;;1.42;;
52354;SDS011;38286;51.156;17.038;2023-09-30T14:17:00;4.88;;;1.55;;
52354;SDS011;38286;51.156;17.038;2023-09-30T14:19:33;5.07;;;1.60;;
52354;SDS011;38286;51.156;17.038;2023-09-30T14:21:59;5.20;;;1.63;;
52354;SDS011;38286;51.156;17.038;2023-09-30T14:24:26;4.68;;;1.70;;
52354;SDS011;38286;51.156;17.038;2023-09-30T14:26:52;7.22;;;1.60;;
52354;SDS011;38286;51.156;17.038;2023-09-30T14:29:21;5.85;;;1.50;;
52354;SDS011;38286;51.156;17.038;2023-09-30T14:31:48;5.60;;;1.30;;
52354;SDS011;38286;51.156;17.038;2023-09-30T14:34:14;3.67;;;1.48;;
52354;SDS011;38286;51.156;17.038;2023-09-30T14:36:40;5.07;;;1.63;;
52354;SDS011;38286;51.156;17.038;2023-09-30T14:39:06;8.40;;;1.50;;
52354;SDS011;38286;51.156;17.038;2023-09-30T14:41:33;4.32;;;1.30;;
52354;SDS011;38286;51.156;17.038;2023-09-30T14:44:00;6.75;;;1.80;;
52354;SDS011;38286;51.156;17.038;2023-09-30T14:46:26;10.68;;;1.92;;
52354;SDS011;38286;51.156;17.038;2023-09-30T14:48:53;7.70;;;1.83;;